Time;durP1;ratioP1;P1;durP2;ratioP2;P2;SDS_P1;SDS_P2;PMS_P1;PMS_P2;Temp;Humidity;BMP_temperature;BMP_pressure;BME280_temperature;BME280_humidity;BME280_pressure;Samples;Min_cycle;Max_cycle;Signal;HPM_P1;HPM_P2
2022/12/11 00:00:25;;;;;;;11.88;7.22;;;15.90;1.00;;;;;;4822424;29;20145;-43
2022/12/11 00:02:52;;;;;;;13.48;7.55;;;15.80;1.00;;;;;;4822402;29;20054;-42
2022/12/11 00:05:19;;;;;;;12.63;7.80;;;15.80;1.00;;;;;;4822398;29;20043;-42
2022/12/11 00:07:46;;;;;;;15.05;8.95;;;15.70;1.00;;;;;;4822522;29;20079;-42
2022/12/11 00:10:12;;;;;;;12.68;6.78;;;15.70;1.00;;;;;;4822346;29;20050;-42
2022/12/11 00:12:39;;;;;;;13.63;7.45;;;15.70;1.00;;;;;;4824686;29;20105;-43
2022/12/11 00:15:07;;;;;;;15.20;7.78;;;15.70;1.00;;;;;;4825441;29;20095;-42
2022/12/11 00:17:35;;;;;;;12.95;7.50;;;15.60;1.00;;;;;;4825576;29;20046;-42
2022/12/11 00:20:02;;;;;;;13.50;7.10;;;15.60;1.00;;;;;;4825504;29;20074;-42
2022/12/11 00:22:30;;;;;;;13.60;7.30;;;15.60;1.00;;;;;;4825225;29;20543;-41
2022/12/11 00:24:56;;;;;;;15.30;8.02;;;15.60;1.00;;;;;;4825349;29;20099;-42
2022/12/11 00:27:23;;;;;;;14.38;8.38;;;15.60;1.00;;;;;;4825355;29;20078;-43
2022/12/11 00:29:50;;;;;;;15.35;7.80;;;15.60;1.00;;;;;;4825186;29;20069;-42
2022/12/11 00:32:17;;;;;;;12.40;8.05;;;15.50;1.00;;;;;;4824926;29;20086;-42
2022/12/11 00:34:44;;;;;;;12.70;7.03;;;15.50;1.00;;;;;;4825179;29;20129;-42
2022/12/11 00:37:10;;;;;;;12.35;6.90;;;15.50;1.00;;;;;;4825259;29;20051;-42
2022/12/11 00:39:38;;;;;;;12.32;7.40;;;15.60;1.00;;;;;;4825214;29;20062;-42
2022/12/11 00:42:06;;;;;;;13.00;6.88;;;15.60;1.00;;;;;;4825147;29;20085;-41
2022/12/11 00:44:33;;;;;;;13.63;7.45;;;15.60;1.00;;;;;;4825000;29;20415;-42
2022/12/11 00:47:00;;;;;;;11.52;6.80;;;15.70;1.00;;;;;;4825079;29;20099;-42
2022/12/11 00:49:27;;;;;;;11.80;6.45;;;15.80;1.00;;;;;;4825134;29;20110;-42
2022/12/11 00:51:54;;;;;;;9.98;6.22;;;15.90;1.00;;;;;;4824862;29;20058;-41
2022/12/11 00:54:20;;;;;;;11.98;6.60;;;16.00;1.00;;;;;;4824664;29;20049;-41
2022/12/11 00:56:47;;;;;;;11.18;6.40;;;16.10;1.00;;;;;;4825010;29;20046;-41
2022/12/11 00:59:14;;;;;;;14.75;6.57;;;16.10;1.00;;;;;;4824905;29;20046;-42
2022/12/11 01:01:41;;;;;;;12.93;7.05;;;16.20;1.00;;;;;;4824788;29;20061;-42
2022/12/11 01:04:08;;;;;;;10.75;6.32;;;16.30;1.00;;;;;;4824570;29;20050;-42
2022/12/11 01:06:34;;;;;;;12.38;6.68;;;16.30;1.00;;;;;;4824668;29;20276;-42
2022/12/11 01:11:47;;;;;;;9.55;5.75;;;16.40;1.00;;;;;;4824579;29;20046;-42
2022/12/11 01:14:13;;;;;;;13.40;7.00;;;16.40;1.00;;;;;;4824384;29;20077;-42
2022/12/11 01:16:40;;;;;;;9.40;5.72;;;16.40;1.00;;;;;;4824538;29;20112;-42
2022/12/11 01:19:07;;;;;;;9.40;5.88;;;16.40;1.00;;;;;;4824577;29;20050;-45
2022/12/11 01:21:34;;;;;;;12.27;6.43;;;16.50;1.00;;;;;;4824502;29;20073;-42
2022/12/11 01:24:01;;;;;;;10.30;5.80;;;16.50;1.00;;;;;;4823594;29;20049;-42
2022/12/11 01:26:29;;;;;;;11.38;6.50;;;16.50;1.00;;;;;;4824427;29;20042;-42
2022/12/11 01:28:56;;;;;;;9.75;5.63;;;16.50;1.00;;;;;;4824470;29;20457;-42
2022/12/11 01:31:23;;;;;;;11.20;6.93;;;16.50;1.00;;;;;;4796591;29;20077;-42
2022/12/11 01:33:52;;;;;;;13.18;6.47;;;16.50;1.00;;;;;;4817629;29;20133;-44
2022/12/11 01:36:20;;;;;;;13.13;6.10;;;16.50;1.00;;;;;;4788158;30;20079;-44
2022/12/11 01:38:48;;;;;;;15.57;6.93;;;16.40;1.00;;;;;;4788216;30;20125;-42
2022/12/11 01:41:16;;;;;;;13.50;7.43;;;16.40;1.00;;;;;;4787903;29;20058;-43
2022/12/11 01:44:01;;;;;;;11.65;6.18;;;16.40;1.00;;;;;;4787730;30;20523;-42
2022/12/11 01:46:30;;;;;;;12.63;7.00;;;16.40;1.00;;;;;;4814280;29;20049;-42
2022/12/11 01:48:59;;;;;;;12.23;6.57;;;16.40;1.00;;;;;;4808504;29;20439;-43
2022/12/11 01:51:30;;;;;;;13.18;5.80;;;16.40;1.00;;;;;;4805735;29;20047;-42
2022/12/11 01:54:03;;;;;;;14.05;6.35;;;16.30;1.00;;;;;;4805695;29;20122;-42
2022/12/11 01:56:32;;;;;;;12.82;6.43;;;16.30;1.00;;;;;;4805834;29;20043;-42
2022/12/11 01:59:06;;;;;;;12.20;6.57;;;16.30;1.00;;;;;;4805761;29;20522;-42
2022/12/11 02:01:41;;;;;;;12.57;6.60;;;16.30;1.00;;;;;;4813132;29;20046;-43
2022/12/11 02:04:09;;;;;;;9.65;5.53;;;16.20;1.00;;;;;;4789260;29;20206;-43
2022/12/11 02:06:46;;;;;;;16.67;7.03;;;16.20;1.00;;;;;;4805651;29;20086;-42
2022/12/11 02:09:19;;;;;;;9.95;6.80;;;16.20;1.00;;;;;;4805492;29;20096;-42
2022/12/11 02:11:51;;;;;;;11.65;7.65;;;16.10;1.00;;;;;;4805778;29;20043;-42
2022/12/11 02:14:42;;;;;;;11.70;6.10;;;16.10;1.00;;;;;;4805562;29;20135;-42
2022/12/11 02:17:25;;;;;;;12.45;6.85;;;16.10;1.00;;;;;;4805514;29;20499;-41
2022/12/11 02:20:09;;;;;;;11.27;5.95;;;16.00;1.00;;;;;;4805418;29;20039;-41
2022/12/11 02:23:13;;;;;;;12.48;6.53;;;16.00;1.00;;;;;;4805423;29;20051;-42
2022/12/11 02:25:55;;;;;;;13.57;6.88;;;16.00;1.00;;;;;;4804523;29;20050;-42
2022/12/11 02:28:37;;;;;;;11.05;6.15;;;15.90;1.00;;;;;;4805874;29;20111;-41
2022/12/11 02:31:12;;;;;;;13.13;7.30;;;15.90;1.00;;;;;;4805177;29;20095;-42
2022/12/11 02:33:49;;;;;;;13.75;7.32;;;15.80;1.00;;;;;;4805059;29;20047;-41
2022/12/11 02:36:18;;;;;;;13.40;7.15;;;15.90;1.00;;;;;;4805058;29;20058;-43
2022/12/11 02:38:49;;;;;;;9.18;5.93;;;15.80;1.00;;;;;;4805200;29;20491;-42
2022/12/11 02:41:18;;;;;;;11.35;6.78;;;15.80;1.00;;;;;;4804921;29;20134;-43
2022/12/11 02:43:47;;;;;;;12.27;7.32;;;15.70;1.00;;;;;;4804766;29;20488;-42
2022/12/11 02:46:16;;;;;;;11.10;6.60;;;15.70;1.00;;;;;;4805472;29;20070;-43
2022/12/11 02:48:44;;;;;;;12.20;7.63;;;15.70;1.00;;;;;;4804860;29;20471;-41
2022/12/11 02:51:13;;;;;;;14.35;7.00;;;15.60;1.00;;;;;;4804971;29;20058;-42
2022/12/11 02:53:42;;;;;;;13.98;7.18;;;15.60;1.00;;;;;;4804815;29;20129;-42
2022/12/11 02:56:15;;;;;;;12.77;7.03;;;15.60;1.00;;;;;;4804918;29;20047;-42
2022/12/11 02:58:47;;;;;;;11.02;6.38;;;15.60;1.00;;;;;;4815956;29;20046;-42
2022/12/11 03:01:14;;;;;;;10.63;6.50;;;15.60;1.00;;;;;;4806880;29;20133;-41
2022/12/11 03:03:41;;;;;;;10.52;7.05;;;15.50;1.00;;;;;;4822925;29;20046;-43
2022/12/11 03:06:12;;;;;;;10.93;6.32;;;15.50;1.00;;;;;;4823076;29;20054;-42
2022/12/11 03:08:39;;;;;;;12.32;7.20;;;15.40;1.00;;;;;;4823110;29;20095;-42
2022/12/11 03:11:10;;;;;;;11.27;6.75;;;15.40;1.00;;;;;;4822892;29;20050;-42
2022/12/11 03:13:38;;;;;;;10.73;6.95;;;15.40;1.00;;;;;;4822643;29;20050;-42
2022/12/11 03:16:13;;;;;;;13.07;7.10;;;15.30;1.00;;;;;;4822966;29;20080;-42
2022/12/11 03:19:01;;;;;;;13.23;7.25;;;15.40;1.00;;;;;;4823026;29;20555;-42
2022/12/11 03:21:52;;;;;;;11.50;6.35;;;15.30;1.00;;;;;;4822904;29;20050;-42
2022/12/11 03:24:26;;;;;;;11.45;7.00;;;15.30;1.00;;;;;;4822565;29;20452;-41
2022/12/11 03:26:57;;;;;;;15.88;6.35;;;15.30;1.00;;;;;;4822983;29;20085;-42
2022/12/11 03:29:35;;;;;;;11.23;6.45;;;15.20;1.00;;;;;;4822802;29;20093;-42
2022/12/11 03:32:12;;;;;;;11.40;7.47;;;15.20;1.00;;;;;;4822637;29;20050;-42
2022/12/11 03:35:32;;;;;;;10.55;7.28;;;15.20;1.00;;;;;;4822538;29;20126;-41
2022/12/11 03:38:17;;;;;;;13.68;7.53;;;15.20;1.00;;;;;;4807504;29;20062;-42
2022/12/11 03:40:47;;;;;;;11.15;6.50;;;15.10;1.00;;;;;;4806753;29;20043;-42
2022/12/11 03:43:15;;;;;;;9.88;6.32;;;15.10;1.00;;;;;;4822634;29;20057;-42
2022/12/11 03:45:44;;;;;;;10.73;6.50;;;15.10;1.00;;;;;;4822761;29;20129;-42
2022/12/11 03:48:12;;;;;;;11.30;6.72;;;15.10;1.00;;;;;;4826064;29;20103;-42
2022/12/11 03:50:40;;;;;;;13.02;7.82;;;15.00;1.00;;;;;;4825916;29;20138;-46
2022/12/11 03:53:07;;;;;;;10.57;6.50;;;15.00;1.00;;;;;;4809480;29;20477;-42
2022/12/11 03:55:36;;;;;;;17.02;6.90;;;15.00;1.00;;;;;;4825793;29;20054;-53
2022/12/11 03:58:03;;;;;;;9.65;6.68;;;15.00;1.00;;;;;;4825876;29;20047;-59
2022/12/11 04:00:31;;;;;;;9.93;6.22;;;15.00;1.00;;;;;;4825800;29;20179;-59
2022/12/11 04:03:13;;;;;;;9.82;6.10;;;15.00;1.00;;;;;;4825671;29;20504;-59
2022/12/11 04:05:49;;;;;;;10.35;5.57;;;15.00;1.00;;;;;;4825776;29;20054;-59
2022/12/11 04:08:17;;;;;;;8.30;5.75;;;15.00;1.00;;;;;;4825754;29;20046;-59
2022/12/11 04:10:43;;;;;;;8.98;5.75;;;15.10;1.00;;;;;;4825596;29;20082;-58
2022/12/11 04:13:11;;;;;;;11.85;5.60;;;15.20;1.00;;;;;;4825446;29;20407;-59
2022/12/11 04:15:39;;;;;;;8.88;5.75;;;15.20;1.00;;;;;;4825523;29;20038;-59
2022/12/11 04:26:26;;;;;;;8.35;5.43;;;15.60;1.00;;;;;;4825406;29;20054;-59
2022/12/11 04:28:53;;;;;;;7.75;5.10;;;15.70;1.00;;;;;;4809245;29;20051;-59
2022/12/11 04:31:21;;;;;;;8.10;5.50;;;15.80;1.00;;;;;;4825137;29;20438;-59
2022/12/11 04:33:48;;;;;;;10.32;6.15;;;15.90;1.00;;;;;;4824911;29;20085;-59
2022/12/11 04:36:15;;;;;;;8.00;4.65;;;16.00;1.00;;;;;;4825453;29;20426;-59
2022/12/11 04:38:42;;;;;;;8.65;4.97;;;16.10;1.00;;;;;;4825274;29;20058;-59
2022/12/11 04:41:12;;;;;;;13.82;5.30;;;16.10;1.00;;;;;;4825009;29;20043;-59
2022/12/11 04:43:39;;;;;;;8.07;4.70;;;16.20;1.00;;;;;;4825032;29;20054;-59
2022/12/11 04:46:12;;;;;;;6.63;4.50;;;16.20;1.00;;;;;;4825125;29;20050;-59
2022/12/11 04:48:39;;;;;;;10.13;5.25;;;16.20;1.00;;;;;;4825108;29;20064;-59
2022/12/11 04:51:07;;;;;;;9.50;5.50;;;16.20;1.00;;;;;;4825033;29;20058;-58
2022/12/11 04:53:34;;;;;;;8.32;5.45;;;16.20;1.00;;;;;;4824606;29;20119;-59
2022/12/11 04:56:04;;;;;;;6.18;4.53;;;16.30;1.00;;;;;;4824872;29;20074;-59
2022/12/11 04:58:31;;;;;;;8.80;5.28;;;16.30;1.00;;;;;;4823728;29;20099;-59
2022/12/11 05:00:58;;;;;;;6.88;4.63;;;16.30;1.00;;;;;;4813998;29;20043;-59
2022/12/11 05:03:25;;;;;;;7.38;4.63;;;16.30;1.00;;;;;;4815881;29;20047;-59
2022/12/11 05:05:52;;;;;;;7.05;4.63;;;16.20;1.00;;;;;;4814712;29;20130;-59
2022/12/11 05:08:20;;;;;;;8.10;4.75;;;16.20;1.00;;;;;;4813933;29;20042;-59
2022/12/11 05:11:04;;;;;;;7.38;4.63;;;16.20;1.00;;;;;;4806574;29;20047;-59
2022/12/11 05:13:31;;;;;;;8.05;5.13;;;16.20;1.00;;;;;;4806287;29;20122;-59
2022/12/11 05:15:58;;;;;;;9.23;5.00;;;16.20;1.00;;;;;;4813884;29;20051;-59
2022/12/11 05:18:25;;;;;;;5.80;3.78;;;16.10;1.00;;;;;;4818064;29;20052;-59
2022/12/11 05:21:00;;;;;;;8.15;4.85;;;16.10;1.00;;;;;;4824462;29;20129;-60
2022/12/11 05:23:27;;;;;;;7.80;5.13;;;16.10;1.00;;;;;;4824218;29;20058;-59
2022/12/11 05:25:56;;;;;;;7.45;4.85;;;16.00;1.00;;;;;;4824500;29;20050;-59
2022/12/11 05:28:24;;;;;;;9.38;5.57;;;16.00;1.00;;;;;;4824424;29;20046;-59
2022/12/11 05:31:00;;;;;;;7.95;4.88;;;16.00;1.00;;;;;;4822108;29;20555;-59
2022/12/11 05:33:28;;;;;;;8.45;4.70;;;15.90;1.00;;;;;;4811146;29;20050;-60
2022/12/11 05:35:55;;;;;;;7.40;4.55;;;15.90;1.00;;;;;;4824536;29;20053;-59
2022/12/11 05:38:22;;;;;;;8.35;5.10;;;15.90;1.00;;;;;;4824304;29;20043;-59
2022/12/11 05:41:05;;;;;;;6.60;4.65;;;15.80;1.00;;;;;;4824213;29;20108;-59
2022/12/11 05:43:34;;;;;;;;;;;15.80;1.00;;;;;;4824402;29;20054;-59
2022/12/11 05:46:09;;;;;;;6.97;5.15;;;15.80;1.00;;;;;;4824256;29;20019;-59
2022/12/11 05:48:36;;;;;;;8.30;4.65;;;15.70;1.00;;;;;;4824171;29;20547;-59
2022/12/11 05:51:04;;;;;;;7.65;5.00;;;15.70;1.00;;;;;;4824174;29;20123;-59
2022/12/11 05:53:31;;;;;;;8.80;4.15;;;15.60;1.00;;;;;;4823632;29;20046;-59
2022/12/11 05:56:06;;;;;;;8.98;5.18;;;15.60;1.00;;;;;;4824069;29;20042;-59
2022/12/11 05:58:34;;;;;;;7.18;4.43;;;15.60;1.00;;;;;;4824077;29;20050;-59
2022/12/11 06:01:05;;;;;;;6.85;4.30;;;15.60;1.00;;;;;;4823796;29;20129;-59
2022/12/11 06:03:32;;;;;;;6.45;4.47;;;15.50;1.00;;;;;;4823760;29;20129;-59
2022/12/11 06:06:03;;;;;;;6.65;4.72;;;15.50;1.00;;;;;;4823913;29;20439;-59
2022/12/11 06:08:31;;;;;;;6.45;4.32;;;15.50;1.00;;;;;;4823910;29;20103;-59
2022/12/11 06:10:57;;;;;;;7.70;4.22;;;15.50;1.00;;;;;;4823438;29;20054;-59
2022/12/11 06:13:25;;;;;;;6.95;4.68;;;15.40;1.00;;;;;;4823608;29;20558;-59
2022/12/11 06:15:52;;;;;;;6.82;4.35;;;15.40;1.00;;;;;;4823825;29;20054;-60
2022/12/11 06:18:18;;;;;;;7.25;5.20;;;15.40;1.00;;;;;;4823768;29;20467;-59
2022/12/11 06:20:45;;;;;;;6.57;4.22;;;15.30;1.00;;;;;;4807305;29;20137;-59
2022/12/11 06:23:12;;;;;;;6.85;4.80;;;15.30;1.00;;;;;;4823542;29;20122;-59
2022/12/11 06:25:39;;;;;;;7.80;5.22;;;15.30;1.00;;;;;;4823565;29;20495;-60
2022/12/11 06:28:06;;;;;;;9.18;4.55;;;15.30;1.00;;;;;;4823808;29;20504;-59
2022/12/11 06:30:32;;;;;;;8.57;4.53;;;15.20;1.00;;;;;;4823430;29;20141;-59
2022/12/11 06:33:05;;;;;;;7.53;3.53;;;15.20;1.00;;;;;;4823409;29;20046;-59
2022/12/11 06:35:32;;;;;;;6.15;4.25;;;15.20;1.00;;;;;;4823416;29;20046;-59
2022/12/11 06:38:08;;;;;;;5.85;3.92;;;15.10;1.00;;;;;;4823410;29;20050;-59
2022/12/11 06:40:34;;;;;;;7.78;4.80;;;15.10;1.00;;;;;;4823600;29;20596;-59
2022/12/11 06:43:02;;;;;;;5.97;4.35;;;15.10;1.00;;;;;;4823217;29;20458;-59
2022/12/11 06:45:29;;;;;;;6.55;4.00;;;15.10;1.00;;;;;;4823357;29;20057;-59
2022/12/11 06:47:57;;;;;;;6.45;4.55;;;15.00;1.00;;;;;;4823378;29;20129;-59
2022/12/11 06:50:24;;;;;;;6.55;4.05;;;15.10;1.00;;;;;;4823080;29;20069;-60
2022/12/11 06:52:52;;;;;;;5.65;4.10;;;15.10;1.00;;;;;;4823068;29;20050;-59
2022/12/11 06:55:19;;;;;;;7.13;4.40;;;15.20;1.00;;;;;;4823247;29;20050;-59
2022/12/11 06:57:45;;;;;;;6.43;4.53;;;15.30;1.00;;;;;;4823305;29;20121;-58
2022/12/11 07:00:13;;;;;;;4.85;3.85;;;15.30;1.00;;;;;;4823031;29;20093;-59
2022/12/11 07:02:40;;;;;;;7.72;4.68;;;15.40;1.00;;;;;;4822942;29;20562;-59
2022/12/11 07:05:10;;;;;;;5.70;4.07;;;15.50;1.00;;;;;;4822970;29;20130;-59
2022/12/11 07:07:37;;;;;;;6.35;3.83;;;15.50;1.00;;;;;;4823211;29;20069;-59
2022/12/11 07:10:04;;;;;;;6.05;4.07;;;15.60;1.00;;;;;;4823161;29;20058;-59
2022/12/11 07:12:35;;;;;;;6.75;4.28;;;15.70;1.00;;;;;;4822887;29;20052;-59
2022/12/11 07:15:05;;;;;;;7.30;3.85;;;15.80;1.00;;;;;;4822908;29;20444;-59
2022/12/11 07:17:32;;;;;;;5.97;3.97;;;15.80;1.00;;;;;;4823072;29;20038;-58
2022/12/11 07:20:02;;;;;;;5.53;3.70;;;15.90;1.00;;;;;;4822923;29;20046;-59
2022/12/11 07:22:29;;;;;;;5.75;3.58;;;15.90;1.00;;;;;;4825595;29;20047;-58
2022/12/11 07:24:55;;;;;;;4.80;3.03;;;15.90;1.00;;;;;;4826354;29;20542;-59
2022/12/11 07:27:22;;;;;;;5.85;3.38;;;16.00;1.00;;;;;;4810397;29;20046;-59
2022/12/11 07:29:50;;;;;;;5.53;4.00;;;16.00;1.00;;;;;;4826361;29;20555;-59
2022/12/11 07:32:17;;;;;;;4.85;3.78;;;16.00;1.00;;;;;;4826221;29;20046;-59
2022/12/11 07:34:44;;;;;;;5.75;3.80;;;16.00;1.00;;;;;;4826160;29;20043;-59
2022/12/11 07:37:17;;;;;;;;;;;16.00;1.00;;;;;;4812086;29;20117;-60
2022/12/11 07:39:44;;;;;;;7.60;3.47;;;16.00;1.00;;;;;;4818538;29;20023;-49
2022/12/11 07:42:10;;;;;;;6.90;4.10;;;16.00;1.00;;;;;;4818394;29;20046;-48
2022/12/11 07:44:37;;;;;;;7.32;3.80;;;16.00;1.00;;;;;;4818806;29;20125;-46
2022/12/11 07:47:04;;;;;;;5.07;3.58;;;16.00;1.00;;;;;;4819309;29;20050;-47
2022/12/11 07:49:31;;;;;;;5.90;3.67;;;15.90;1.00;;;;;;4821362;29;20129;-50
2022/12/11 07:51:57;;;;;;;5.70;3.70;;;15.90;1.00;;;;;;4819477;29;20074;-46
2022/12/11 07:54:24;;;;;;;12.40;4.20;;;15.90;1.00;;;;;;4821062;29;20050;-50
2022/12/11 07:56:51;;;;;;;9.00;3.92;;;15.90;1.00;;;;;;4825943;29;20525;-51
2022/12/11 07:59:20;;;;;;;5.22;3.42;;;15.90;1.00;;;;;;4825558;29;20042;-49
2022/12/11 08:01:46;;;;;;;6.75;3.25;;;15.90;1.00;;;;;;4825830;29;20051;-51
2022/12/11 08:04:14;;;;;;;9.68;4.43;;;15.80;1.00;;;;;;4825526;29;20129;-49
2022/12/11 08:06:42;;;;;;;7.07;4.18;;;15.80;1.00;;;;;;4825684;29;20427;-50
2022/12/11 08:09:11;;;;;;;8.43;3.90;;;15.80;1.00;;;;;;4825690;29;20503;-47
2022/12/11 08:11:50;;;;;;;8.82;3.97;;;15.80;1.00;;;;;;4825615;29;20103;-46
2022/12/11 08:14:18;;;;;;;9.10;4.50;;;15.70;1.00;;;;;;4825227;29;20055;-47
2022/12/11 08:16:45;;;;;;;8.90;4.57;;;15.70;1.00;;;;;;4825448;29;20046;-48
2022/12/11 08:19:12;;;;;;;7.55;4.22;;;15.70;1.00;;;;;;4824397;29;20046;-46
2022/12/11 08:21:39;;;;;;;6.47;4.10;;;15.70;1.00;;;;;;4816033;29;20113;-48
2022/12/11 08:24:07;;;;;;;5.65;3.83;;;15.70;1.00;;;;;;4824578;29;20133;-48
2022/12/11 08:26:34;;;;;;;8.80;4.65;;;15.60;1.00;;;;;;4825242;29;20057;-49
2022/12/11 08:29:01;;;;;;;6.43;4.00;;;15.60;1.00;;;;;;4819925;29;20616;-48
2022/12/11 08:31:28;;;;;;;6.43;3.80;;;15.60;1.00;;;;;;4814195;29;20089;-46
2022/12/11 08:33:55;;;;;;;9.20;4.72;;;15.50;1.00;;;;;;4811447;29;20042;-48
2022/12/11 08:36:23;;;;;;;6.60;4.38;;;15.50;1.00;;;;;;4815003;29;20043;-46
2022/12/11 08:38:50;;;;;;;8.88;5.28;;;15.50;1.00;;;;;;4814153;29;20051;-47
2022/12/11 08:41:23;;;;;;;7.65;4.95;;;15.50;1.00;;;;;;4790669;29;20497;-46
2022/12/11 08:43:53;;;;;;;7.78;4.88;;;15.40;1.00;;;;;;4791333;29;20091;-47
2022/12/11 08:46:23;;;;;;;7.28;4.68;;;15.40;1.00;;;;;;4809145;29;20093;-47
2022/12/11 08:48:51;;;;;;;7.13;4.30;;;15.40;1.00;;;;;;4817219;29;20046;-48
2022/12/11 08:51:21;;;;;;;7.47;5.07;;;15.40;1.00;;;;;;4816583;29;20468;-47
2022/12/11 08:53:50;;;;;;;10.43;4.60;;;15.40;1.00;;;;;;4820784;29;20050;-46
2022/12/11 08:56:19;;;;;;;8.35;4.07;;;15.30;1.00;;;;;;4824768;29;20051;-47
2022/12/11 08:58:46;;;;;;;7.97;4.47;;;15.30;1.00;;;;;;4824749;29;20057;-48
2022/12/11 09:01:16;;;;;;;6.93;4.22;;;15.30;1.00;;;;;;4824727;29;20046;-52
2022/12/11 09:03:53;;;;;;;6.55;4.50;;;15.30;1.00;;;;;;4824350;29;20070;-46
2022/12/11 09:06:27;;;;;;;10.50;7.07;;;15.20;1.00;;;;;;4824816;29;20074;-50
2022/12/11 09:08:55;;;;;;;13.02;6.43;;;15.20;1.00;;;;;;4824907;29;20058;-50
2022/12/11 09:11:24;;;;;;;9.27;5.25;;;15.10;1.00;;;;;;4824671;29;20125;-45
2022/12/11 09:13:51;;;;;;;8.35;5.25;;;15.10;1.00;;;;;;4824291;29;20112;-46
2022/12/11 09:16:21;;;;;;;9.15;5.07;;;15.10;1.00;;;;;;4824709;29;20043;-50
2022/12/11 09:18:50;;;;;;;11.30;5.75;;;15.00;1.00;;;;;;4824465;29;20066;-47
2022/12/11 09:21:20;;;;;;;6.85;4.60;;;15.00;1.00;;;;;;4824864;29;20410;-49
2022/12/11 09:23:47;;;;;;;9.75;5.03;;;15.00;1.00;;;;;;4824282;29;20112;-45
2022/12/11 09:26:15;;;;;;;9.05;4.88;;;15.00;1.00;;;;;;4824682;29;20070;-48
2022/12/11 09:28:43;;;;;;;13.20;5.70;;;14.90;1.00;;;;;;4808075;29;20054;-47
2022/12/11 09:31:14;;;;;;;6.95;4.25;;;14.90;1.00;;;;;;4824413;29;20525;-48
2022/12/11 09:33:41;;;;;;;8.52;5.03;;;14.90;1.00;;;;;;4824153;29;20418;-47
2022/12/11 09:36:09;;;;;;;8.02;4.70;;;14.80;1.00;;;;;;4824328;29;20055;-46
2022/12/11 09:38:36;;;;;;;9.77;4.50;;;14.80;1.00;;;;;;4817136;29;20043;-48
2022/12/11 09:41:21;;;;;;;12.02;6.43;;;14.80;1.00;;;;;;4802957;29;20066;-46
2022/12/11 09:44:04;;;;;;;12.75;6.97;;;14.80;1.00;;;;;;4812557;29;20051;-51
2022/12/11 09:46:32;;;;;;;11.80;7.28;;;14.70;1.00;;;;;;4807721;29;20122;-46
2022/12/11 09:49:02;;;;;;;10.30;6.65;;;14.60;1.00;;;;;;4805187;29;20051;-47
2022/12/11 09:52:00;;;;;;;9.32;5.65;;;14.70;1.00;;;;;;4812359;29;20063;-47
2022/12/11 09:54:27;;;;;;;13.27;5.93;;;14.60;1.00;;;;;;4805324;29;20054;-45
2022/12/11 09:57:09;;;;;;;12.88;6.55;;;14.60;1.00;;;;;;4808797;29;20051;-46
2022/12/11 09:59:49;;;;;;;13.65;6.13;;;14.60;1.00;;;;;;4805791;29;20125;-46
2022/12/11 10:02:22;;;;;;;11.18;6.45;;;14.60;1.00;;;;;;4789438;29;20150;-46
2022/12/11 10:04:49;;;;;;;9.98;5.70;;;14.60;1.00;;;;;;4805619;29;20059;-48
2022/12/11 10:07:34;;;;;;;8.38;5.47;;;14.50;1.00;;;;;;4806414;29;20057;-48
2022/12/11 10:10:30;;;;;;;14.07;6.45;;;14.50;1.00;;;;;;4812527;29;20047;-46
2022/12/11 10:13:22;;;;;;;9.20;5.00;;;14.50;1.00;;;;;;4807267;29;20058;-45
2022/12/11 10:16:11;;;;;;;9.82;4.40;;;14.50;1.00;;;;;;4818796;29;20490;-46
2022/12/11 10:18:39;;;;;;;8.30;4.53;;;14.60;1.00;;;;;;4823909;29;20058;-50
2022/12/11 10:21:06;;;;;;;8.43;5.30;;;14.60;1.00;;;;;;4818354;29;20129;-46
2022/12/11 10:23:41;;;;;;;8.57;4.85;;;14.70;1.00;;;;;;4805297;29;20035;-47
2022/12/11 10:26:21;;;;;;;7.88;4.63;;;14.70;1.00;;;;;;4805291;29;20078;-45
2022/12/11 10:28:49;;;;;;;5.43;3.55;;;14.80;1.00;;;;;;4804022;29;20054;-47
2022/12/11 10:31:26;;;;;;;7.40;3.60;;;15.00;1.00;;;;;;4817832;29;20046;-49
2022/12/11 10:34:07;;;;;;;6.05;3.22;;;15.10;1.00;;;;;;4813822;29;20042;-48
2022/12/11 10:36:37;;;;;;;7.57;3.20;;;15.20;1.00;;;;;;4811685;29;20043;-50
2022/12/11 10:39:16;;;;;;;12.45;3.95;;;15.40;1.00;;;;;;4805599;29;20050;-50
2022/12/11 10:41:44;;;;;;;8.85;3.10;;;15.70;1.00;;;;;;4809437;29;20077;-47
2022/12/11 10:44:21;;;;;;;3.53;2.40;;;15.80;1.00;;;;;;4804718;29;20055;-47
2022/12/11 10:47:10;;;;;;;4.80;2.28;;;16.00;1.00;;;;;;4805298;29;20047;-47
2022/12/11 10:49:38;;;;;;;5.13;3.03;;;16.20;1.00;;;;;;4805066;29;20046;-47
2022/12/11 10:52:37;;;;;;;4.78;1.98;;;16.30;1.00;;;;;;4807417;29;20046;-49
2022/12/11 10:55:16;;;;;;;7.20;2.83;;;16.50;1.00;;;;;;4806014;29;20423;-47
2022/12/11 10:57:43;;;;;;;7.00;2.45;;;16.60;1.00;;;;;;4811995;29;20038;-49
2022/12/11 11:00:37;;;;;;;5.20;2.30;;;16.70;1.00;;;;;;4803816;29;20166;-47
2022/12/11 11:03:18;;;;;;;2.70;1.85;;;16.80;1.00;;;;;;4803805;29;20035;-49
2022/12/11 11:05:45;;;;;;;2.83;1.55;;;16.90;1.00;;;;;;4812269;29;20042;-46
2022/12/11 11:08:21;;;;;;;3.50;2.00;;;17.00;1.00;;;;;;4792442;29;20407;-46
2022/12/11 11:10:59;;;;;;;4.00;2.10;;;17.10;1.00;;;;;;4810081;29;20100;-46
2022/12/11 11:13:28;;;;;;;4.25;2.03;;;17.20;1.00;;;;;;4809136;29;20418;-47
2022/12/11 11:16:11;;;;;;;2.83;1.73;;;17.30;1.00;;;;;;4806937;29;20122;-46
2022/12/11 11:18:40;;;;;;;4.37;1.93;;;17.50;1.00;;;;;;4812409;29;20050;-48
2022/12/11 11:21:15;;;;;;;3.20;1.80;;;17.60;1.00;;;;;;4814898;29;20614;-47
2022/12/11 11:23:43;;;;;;;2.90;1.83;;;17.70;1.00;;;;;;4816937;29;20077;-47
2022/12/11 11:26:19;;;;;;;4.20;2.30;;;17.80;1.00;;;;;;4807487;29;20043;-46
2022/12/11 11:28:53;;;;;;;3.20;1.10;;;18.00;1.00;;;;;;4813155;29;20042;-50
2022/12/11 11:31:28;;;;;;;6.38;2.13;;;18.10;1.00;;;;;;4810436;29;20135;-48
2022/12/11 11:33:58;;;;;;;3.53;2.10;;;18.10;1.00;;;;;;4813092;29;20047;-45
2022/12/11 11:36:28;;;;;;;3.22;1.83;;;18.20;1.00;;;;;;4811314;29;20459;-49
2022/12/11 11:39:22;;;;;;;3.63;1.60;;;18.30;1.00;;;;;;4819781;29;20050;-47
2022/12/11 11:41:54;;;;;;;5.93;1.92;;;18.30;1.00;;;;;;4811077;29;20449;-50
2022/12/11 11:44:37;;;;;;;4.30;2.20;;;18.40;1.00;;;;;;4800491;29;20073;-50
2022/12/11 11:47:26;;;;;;;2.50;1.95;;;18.50;1.00;;;;;;4809284;29;20103;-48
2022/12/11 11:50:02;;;;;;;3.92;2.15;;;18.50;1.00;;;;;;4814075;29;20084;-49
2022/12/11 11:52:33;;;;;;;6.97;2.47;;;18.50;1.00;;;;;;4811777;29;20054;-47
2022/12/11 11:55:08;;;;;;;4.57;2.13;;;18.60;1.00;;;;;;4814678;29;20043;-48
2022/12/11 11:58:01;;;;;;;1.90;1.55;;;18.70;1.00;;;;;;4813926;29;20042;-46
2022/12/11 12:00:29;;;;;;;3.83;1.80;;;18.70;1.00;;;;;;4807403;29;20059;-46
2022/12/11 12:03:12;;;;;;;4.15;2.17;;;18.70;1.00;;;;;;4811865;29;20466;-48
2022/12/11 12:06:07;;;;;;;4.70;2.03;;;18.80;1.00;;;;;;4816598;29;20050;-47
2022/12/11 12:08:49;;;;;;;3.88;1.65;;;18.80;1.00;;;;;;4817656;29;20495;-47
2022/12/11 12:11:37;;;;;;;3.00;1.60;;;18.90;1.00;;;;;;4813159;29;20050;-47
2022/12/11 12:14:16;;;;;;;2.17;1.48;;;18.90;1.00;;;;;;4816721;29;20047;-47
2022/12/11 12:17:36;;;;;;;3.85;1.92;;;18.90;1.00;;;;;;4816263;29;20042;-47
2022/12/11 12:20:23;;;;;;;5.10;1.85;;;18.90;1.00;;;;;;4817633;29;20503;-49
2022/12/11 12:23:15;;;;;;;4.57;2.13;;;18.90;1.00;;;;;;4805697;29;20138;-46
2022/12/11 12:25:52;;;;;;;2.20;1.70;;;18.90;1.00;;;;;;4810206;29;20042;-47
2022/12/11 12:28:33;;;;;;;2.05;1.52;;;18.90;1.00;;;;;;4789356;30;20094;-49
2022/12/11 12:31:38;;;;;;;4.13;2.22;;;18.90;1.00;;;;;;4806733;29;20427;-46
2022/12/11 12:34:42;;;;;;;4.70;1.67;;;18.90;1.00;;;;;;4795623;29;20146;-47
2022/12/11 12:37:20;;;;;;;;;;;18.90;1.00;;;;;;4797522;29;20512;-47
2022/12/11 12:40:02;;;;;;;5.30;2.33;;;18.80;1.00;;;;;;4810545;29;19933;-46
2022/12/11 12:42:55;;;;;;;2.35;1.55;;;18.80;1.00;;;;;;4816976;29;20054;-47
2022/12/11 12:45:44;;;;;;;;;;;18.90;1.00;;;;;;4818848;29;20054;-48
2022/12/11 12:48:11;;;;;;;3.60;1.83;;;18.90;1.00;;;;;;4817874;29;20004;-47
2022/12/11 12:50:45;;;;;;;2.42;1.67;;;18.90;1.00;;;;;;4813258;29;20043;-46
2022/12/11 12:53:17;;;;;;;2.78;1.83;;;18.90;1.00;;;;;;4807703;29;20047;-48
2022/12/11 12:55:46;;;;;;;3.00;1.58;;;19.00;1.00;;;;;;4812091;29;20077;-48
2022/12/11 12:58:28;;;;;;;2.58;1.55;;;18.90;1.00;;;;;;4815344;29;20415;-47
2022/12/11 13:01:25;;;;;;;2.85;1.80;;;18.90;1.00;;;;;;4810026;29;20050;-48
2022/12/11 13:03:58;;;;;;;3.38;1.63;;;18.90;1.00;;;;;;4811181;29;20051;-49
2022/12/11 13:06:38;;;;;;;2.90;1.98;;;18.90;1.00;;;;;;4813163;29;20046;-46
2022/12/11 13:09:16;;;;;;;2.78;1.58;;;19.00;1.00;;;;;;4813927;24;20705;-48
2022/12/11 13:11:45;;;;;;;2.58;1.48;;;19.10;1.00;;;;;;4813093;29;20359;-47
2022/12/11 13:14:14;;;;;;;3.38;1.58;;;19.10;1.00;;;;;;4813926;29;20552;-47
2022/12/11 13:16:44;;;;;;;4.95;1.48;;;19.20;1.00;;;;;;4817325;29;20040;-49
2022/12/11 13:19:24;;;;;;;2.90;1.48;;;19.20;1.00;;;;;;4823301;29;20407;-49
2022/12/11 13:22:13;;;;;;;2.20;1.42;;;19.30;1.00;;;;;;4814009;29;20092;-46
2022/12/11 13:24:52;;;;;;;2.47;1.65;;;19.30;1.00;;;;;;4806422;29;20126;-47
2022/12/11 13:27:36;;;;;;;6.32;1.77;;;19.40;1.00;;;;;;4804298;29;20124;-48
2022/12/11 13:30:25;;;;;;;2.90;2.20;;;19.40;1.00;;;;;;4815188;29;20123;-47
2022/12/11 13:33:04;;;;;;;3.30;1.85;;;19.40;1.00;;;;;;4823713;29;20050;-47